createdAt,value
2023-11-14T00:00:13.679Z,0.85
2023-11-14T00:02:50.187Z,0.75
2023-11-14T00:05:20.518Z,0.77
2023-11-14T00:07:54.131Z,1.05
2023-11-14T00:10:23.072Z,1.53
2023-11-14T00:12:50.837Z,0.68
2023-11-14T00:15:22.224Z,1.42
2023-11-14T00:17:50.702Z,0.98
2023-11-14T00:20:17.919Z,1.10
2023-11-14T00:22:45.067Z,0.87
2023-11-14T00:25:12.844Z,1.48
2023-11-14T00:27:39.934Z,3.33
2023-11-14T00:30:07.716Z,0.95
2023-11-14T00:32:34.905Z,0.57
2023-11-14T00:35:03.335Z,0.83
2023-11-14T00:37:30.474Z,0.35
2023-11-14T00:39:58.418Z,0.88
2023-11-14T00:42:25.526Z,2.97
2023-11-14T00:44:53.288Z,4.95
2023-11-14T00:47:20.349Z,5.90
2023-11-14T00:49:48.101Z,6.53
2023-11-14T00:52:16.049Z,0.80
2023-11-14T00:54:43.026Z,2.22
2023-11-14T00:57:11.477Z,3.80
2023-11-14T00:59:38.480Z,0.70
2023-11-14T01:02:07.664Z,0.77
2023-11-14T01:04:39.221Z,2.63
2023-11-14T01:07:09.002Z,7.10
2023-11-14T01:09:39.230Z,5.85
2023-11-14T01:12:06.900Z,4.70
2023-11-14T01:14:34.086Z,17.50
2023-11-14T01:17:04.700Z,9.07
2023-11-14T01:19:32.157Z,49.70
2023-11-14T01:21:59.627Z,30.23
2023-11-14T01:24:26.696Z,64.10
2023-11-14T01:26:53.712Z,59.33
2023-11-14T01:29:20.748Z,54.75
2023-11-14T01:31:50.379Z,29.25
2023-11-14T01:34:17.531Z,26.38
2023-11-14T01:36:44.701Z,61.47
2023-11-14T01:39:11.993Z,37.65
2023-11-14T01:41:39.054Z,37.50
2023-11-14T01:44:06.314Z,47.53
2023-11-14T01:46:33.566Z,32.17
2023-11-14T01:49:08.264Z,10.30
2023-11-14T01:51:37.026Z,3.58
2023-11-14T01:54:05.635Z,1.70
2023-11-14T01:56:33.008Z,1.50
2023-11-14T01:59:00.397Z,2.08
2023-11-14T02:01:27.817Z,2.07
2023-11-14T02:03:55.449Z,2.38
2023-11-14T02:06:22.790Z,1.33
2023-11-14T02:08:50.317Z,2.38
2023-11-14T02:11:17.469Z,1.20
2023-11-14T02:13:46.604Z,1.70
2023-11-14T02:16:13.949Z,4.50
2023-11-14T02:18:41.319Z,2.95
2023-11-14T02:21:13.187Z,1.70
2023-11-14T02:23:46.334Z,2.40
2023-11-14T02:26:13.996Z,1.70
2023-11-14T02:28:41.947Z,2.10
2023-11-14T02:31:09.689Z,1.98
2023-11-14T02:33:39.539Z,2.15
2023-11-14T02:36:08.094Z,2.08
2023-11-14T02:38:35.368Z,4.17
2023-11-14T02:41:03.330Z,0.85
2023-11-14T02:43:31.287Z,2.05
2023-11-14T02:45:58.818Z,1.38
2023-11-14T02:48:26.029Z,1.60
2023-11-14T02:50:57.603Z,1.73
2023-11-14T02:53:27.343Z,1.60
2023-11-14T02:55:54.583Z,1.60
2023-11-14T02:58:21.613Z,2.15
2023-11-14T03:00:53.186Z,2.80
2023-11-14T03:03:21.544Z,1.53
2023-11-14T03:05:49.231Z,1.58
2023-11-14T03:08:17.123Z,1.73
2023-11-14T03:10:44.758Z,2.40
2023-11-14T03:13:13.428Z,1.38
2023-11-14T03:15:41.289Z,2.40
2023-11-14T03:18:08.475Z,2.17
2023-11-14T03:20:35.998Z,2.55
2023-11-14T03:23:04.564Z,1.67
2023-11-14T03:25:32.467Z,1.23
2023-11-14T03:28:00.370Z,1.53
2023-11-14T03:30:28.250Z,2.30
2023-11-14T03:32:56.131Z,2.03
2023-11-14T03:35:24.462Z,1.85
2023-11-14T03:37:51.589Z,2.53
2023-11-14T03:40:18.569Z,1.83
2023-11-14T03:42:45.691Z,2.20
2023-11-14T03:45:12.800Z,1.63
2023-11-14T03:47:39.907Z,1.45
2023-11-14T03:50:09.635Z,1.58
2023-11-14T03:52:38.580Z,2.77
2023-11-14T03:55:06.596Z,3.08
2023-11-14T03:57:33.841Z,2.15
2023-11-14T04:00:00.927Z,2.47
2023-11-14T04:02:30.625Z,1.88
2023-11-14T04:04:57.624Z,2.47
2023-11-14T04:07:24.726Z,2.38
2023-11-14T04:09:51.914Z,1.58
2023-11-14T04:12:18.889Z,1.27
2023-11-14T04:14:48.774Z,2.28
2023-11-14T04:17:16.352Z,1.20
2023-11-14T04:19:45.894Z,1.92
2023-11-14T04:22:14.952Z,3.45
2023-11-14T04:24:41.985Z,2.17
2023-11-14T04:27:09.861Z,2.05
2023-11-14T04:29:37.185Z,3.80
2023-11-14T04:32:04.969Z,2.83
2023-11-14T04:34:32.110Z,2.35
2023-11-14T04:36:59.267Z,2.75
2023-11-14T04:39:26.288Z,2.75
2023-11-14T04:41:53.485Z,1.90
2023-11-14T04:44:20.479Z,1.42
2023-11-14T04:46:47.620Z,1.77
2023-11-14T04:49:15.140Z,2.97
2023-11-14T04:51:42.253Z,2.17
2023-11-14T04:54:09.279Z,1.90
2023-11-14T04:56:36.435Z,2.70
2023-11-14T04:59:04.351Z,2.33
2023-11-14T05:01:31.872Z,1.58
2023-11-14T05:04:01.185Z,6.93
2023-11-14T05:06:29.166Z,37.20
2023-11-14T05:08:56.214Z,4.57
2023-11-14T05:11:23.504Z,6.15
2023-11-14T05:13:50.611Z,2.30
2023-11-14T05:16:23.748Z,5.30
2023-11-14T05:18:52.017Z,4.17
2023-11-14T05:21:19.220Z,4.22
2023-11-14T05:23:46.507Z,3.47
2023-11-14T05:26:13.661Z,3.72
2023-11-14T05:28:40.814Z,2.92
2023-11-14T05:31:11.166Z,4.37
2023-11-14T05:33:38.312Z,3.63
2023-11-14T05:36:05.678Z,5.40
2023-11-14T05:38:33.232Z,3.35
2023-11-14T05:41:00.284Z,9.35
2023-11-14T05:43:29.576Z,5.67
2023-11-14T05:45:56.831Z,4.32
2023-11-14T05:48:24.556Z,3.22
2023-11-14T05:50:51.712Z,4.43
2023-11-14T05:53:18.661Z,4.35
2023-11-14T05:55:45.848Z,4.13
2023-11-14T05:58:13.029Z,3.53
2023-11-14T06:00:40.124Z,4.13
2023-11-14T06:03:08.555Z,3.78
2023-11-14T06:05:35.767Z,6.22
2023-11-14T06:08:05.586Z,4.50
2023-11-14T06:10:32.699Z,3.63
2023-11-14T06:12:59.821Z,6.43
2023-11-14T06:15:28.047Z,5.13
2023-11-14T06:17:55.397Z,3.95
2023-11-14T06:20:23.598Z,4.57
2023-11-14T06:22:54.414Z,3.55
2023-11-14T06:25:22.977Z,3.20
2023-11-14T06:27:50.383Z,5.47
2023-11-14T06:30:18.046Z,3.90
2023-11-14T06:32:45.509Z,6.73
2023-11-14T06:35:13.288Z,3.92
2023-11-14T06:37:43.475Z,4.30
2023-11-14T06:40:11.664Z,4.45
2023-11-14T06:42:39.614Z,5.22
2023-11-14T06:45:08.219Z,5.17
2023-11-14T06:51:33.073Z,4.85
2023-11-14T06:54:00.565Z,3.28
2023-11-14T06:56:28.037Z,7.93
2023-11-14T06:58:55.662Z,4.87
2023-11-14T07:01:23.262Z,3.13
2023-11-14T07:03:51.205Z,4.10
2023-11-14T07:06:20.614Z,6.95
2023-11-14T07:08:48.156Z,3.85
2023-11-14T07:11:16.737Z,7.53
2023-11-14T07:13:45.256Z,5.18
2023-11-14T07:16:12.787Z,7.70
2023-11-14T07:18:40.441Z,6.13
2023-11-14T07:21:08.077Z,4.65
2023-11-14T07:23:35.587Z,6.63
2023-11-14T07:26:04.243Z,6.38
2023-11-14T07:28:31.763Z,6.75
2023-11-14T07:31:01.381Z,12.68
2023-11-14T07:33:29.832Z,3.75
2023-11-14T07:35:57.488Z,12.90
2023-11-14T07:38:25.099Z,6.32
2023-11-14T07:40:53.996Z,5.75
2023-11-14T07:43:25.442Z,5.80
2023-11-14T07:45:53.348Z,4.82
2023-11-14T07:48:20.925Z,4.77
2023-11-14T07:50:49.151Z,4.68
2023-11-14T07:53:17.520Z,8.15
2023-11-14T07:55:45.225Z,5.93
2023-11-14T07:58:15.436Z,6.20
2023-11-14T08:00:43.114Z,4.20
2023-11-14T08:03:12.387Z,6.13
2023-11-14T08:05:41.848Z,5.45
2023-11-14T08:08:15.101Z,5.32
2023-11-14T08:10:42.965Z,4.25
2023-11-14T08:13:10.819Z,4.90
2023-11-14T08:15:39.080Z,4.13
2023-11-14T08:18:06.877Z,6.47
2023-11-14T08:20:34.331Z,4.45
2023-11-14T08:23:01.789Z,8.00
2023-11-14T08:25:30.096Z,5.57
2023-11-14T08:27:57.907Z,5.45
2023-11-14T08:30:28.773Z,9.68
2023-11-14T08:32:56.639Z,6.28
2023-11-14T08:35:26.426Z,3.88
2023-11-14T08:38:07.256Z,8.73
2023-11-14T08:40:41.676Z,6.80
2023-11-14T08:43:09.173Z,7.07
2023-11-14T08:45:37.054Z,5.47
2023-11-14T08:48:07.914Z,7.50
2023-11-14T08:50:37.128Z,9.20
2023-11-14T08:53:04.863Z,6.82
2023-11-14T08:55:33.076Z,5.70
2023-11-14T08:58:02.056Z,10.18
2023-11-14T09:00:31.855Z,8.02
2023-11-14T09:03:00.052Z,7.40
2023-11-14T09:05:28.981Z,8.07
2023-11-14T09:07:56.061Z,5.55
2023-11-14T09:10:24.177Z,6.20
2023-11-14T09:12:51.261Z,8.02
2023-11-14T09:18:50.628Z,6.22
2023-11-14T09:21:18.574Z,5.15
2023-11-14T09:23:45.640Z,5.38
2023-11-14T09:26:13.103Z,8.50
2023-11-14T09:28:41.659Z,11.53
2023-11-14T09:31:09.903Z,10.32
2023-11-14T09:33:40.136Z,5.82
2023-11-14T09:36:07.991Z,5.25
2023-11-14T09:38:35.024Z,9.13
2023-11-14T09:41:04.733Z,4.63
2023-11-14T09:43:31.890Z,6.68
2023-11-14T09:46:02.569Z,5.25
2023-11-14T09:48:29.948Z,5.78
2023-11-14T09:50:56.998Z,4.43
2023-11-14T09:53:24.883Z,7.27
2023-11-14T09:55:55.336Z,8.80
2023-11-14T09:58:22.871Z,6.28
2023-11-14T10:00:50.793Z,7.68
2023-11-14T10:03:18.981Z,11.13
2023-11-14T10:05:46.165Z,11.13
2023-11-14T10:08:14.646Z,5.13
2023-11-14T10:11:06.003Z,6.43
2023-11-14T10:13:33.319Z,8.55
2023-11-14T10:16:21.616Z,9.00
2023-11-14T10:18:50.617Z,8.30
2023-11-14T10:21:31.132Z,9.60
2023-11-14T10:24:00.325Z,6.40
2023-11-14T10:26:28.291Z,8.27
2023-11-14T10:29:01.882Z,6.47
2023-11-14T10:31:36.066Z,8.30
2023-11-14T10:34:07.343Z,5.60
2023-11-14T10:36:49.755Z,6.78
2023-11-14T10:39:17.176Z,7.57
2023-11-14T10:41:44.264Z,7.90
2023-11-14T10:44:15.993Z,10.37
2023-11-14T10:46:53.381Z,7.57
2023-11-14T10:49:24.795Z,6.25
2023-11-14T10:51:55.894Z,6.40
2023-11-14T10:54:23.567Z,5.40
2023-11-14T10:56:57.391Z,7.60
2023-11-14T10:59:26.650Z,5.93
2023-11-14T11:01:54.229Z,8.30
2023-11-14T11:04:21.459Z,8.20
2023-11-14T11:06:50.168Z,9.18
2023-11-14T11:09:20.314Z,7.37
2023-11-14T11:11:53.027Z,4.82
2023-11-14T11:14:23.208Z,4.60
2023-11-14T11:16:56.231Z,6.95
2023-11-14T11:19:25.286Z,5.25
2023-11-14T11:22:03.136Z,11.47
2023-11-14T11:24:40.552Z,10.50
2023-11-14T11:27:27.106Z,8.40
2023-11-14T11:30:00.840Z,5.45
2023-11-14T11:32:32.983Z,8.77
2023-11-14T11:35:22.213Z,6.87
2023-11-14T11:38:05.421Z,7.57
2023-11-14T11:40:33.576Z,7.25
2023-11-14T11:43:14.173Z,6.38
2023-11-14T11:45:42.841Z,8.80
2023-11-14T11:48:31.493Z,9.27
2023-11-14T11:51:19.945Z,8.68
2023-11-14T11:53:48.642Z,8.18
2023-11-14T11:56:35.612Z,7.13
2023-11-14T11:59:05.824Z,9.38
2023-11-14T12:01:33.084Z,10.27
2023-11-14T12:04:00.768Z,7.95
2023-11-14T12:06:28.695Z,13.27
2023-11-14T12:08:56.687Z,10.55
2023-11-14T12:11:23.991Z,10.55
2023-11-14T12:13:54.906Z,7.20
2023-11-14T12:16:23.335Z,8.75
2023-11-14T12:18:50.710Z,8.82
2023-11-14T12:21:19.214Z,11.70
2023-11-14T12:23:48.145Z,9.75
2023-11-14T12:26:16.784Z,7.17
2023-11-14T12:28:45.023Z,9.30
2023-11-14T12:31:13.087Z,8.52
2023-11-14T12:33:47.205Z,8.82
2023-11-14T12:36:24.997Z,8.18
2023-11-14T12:38:53.395Z,8.23
2023-11-14T12:41:29.775Z,11.45
2023-11-14T12:44:06.013Z,7.32
2023-11-14T12:46:37.562Z,13.65
2023-11-14T12:49:11.113Z,11.63
2023-11-14T12:51:41.518Z,8.73
2023-11-14T12:54:09.737Z,8.27
2023-11-14T12:56:37.485Z,8.35
2023-11-14T12:59:09.290Z,11.30
2023-11-14T13:01:37.533Z,5.82
2023-11-14T13:04:11.065Z,7.50
2023-11-14T13:06:41.991Z,10.88
2023-11-14T13:09:09.761Z,9.05
2023-11-14T13:11:37.137Z,13.13
2023-11-14T13:14:05.155Z,10.85
2023-11-14T13:16:32.324Z,10.47
2023-11-14T13:18:59.758Z,7.80
2023-11-14T13:21:26.852Z,10.80
2023-11-14T13:23:53.990Z,8.73
2023-11-14T13:26:24.081Z,7.88
2023-11-14T13:28:52.624Z,8.37
2023-11-14T13:31:20.449Z,10.65
2023-11-14T13:33:48.011Z,8.70
2023-11-14T13:36:19.907Z,10.18
2023-11-14T13:38:47.132Z,6.53
2023-11-14T13:41:16.583Z,11.57
2023-11-14T13:43:45.036Z,8.70
2023-11-14T13:46:23.465Z,11.90
2023-11-14T13:48:56.021Z,7.82
2023-11-14T13:51:23.489Z,8.43
2023-11-14T13:53:52.328Z,6.67
2023-11-14T13:56:20.163Z,11.40
2023-11-14T13:58:47.790Z,7.32
2023-11-14T14:01:17.880Z,7.95
2023-11-14T14:03:45.943Z,6.18
2023-11-14T14:06:14.537Z,8.87
2023-11-14T14:08:42.259Z,10.30
2023-11-14T14:11:13.271Z,7.20
2023-11-14T14:13:41.105Z,7.47
2023-11-14T14:16:15.823Z,8.18
2023-11-14T14:18:45.994Z,8.87
2023-11-14T14:21:15.248Z,7.35
2023-11-14T14:23:42.619Z,10.43
2023-11-14T14:26:10.532Z,8.75
2023-11-14T14:28:40.917Z,5.30
2023-11-14T14:31:10.043Z,11.00
2023-11-14T14:33:37.666Z,7.70
2023-11-14T14:36:06.212Z,6.18
2023-11-14T14:38:33.314Z,11.07
2023-11-14T14:41:01.569Z,7.10
2023-11-14T14:43:30.525Z,8.67
2023-11-14T14:45:58.065Z,10.88
2023-11-14T14:48:25.345Z,11.40
2023-11-14T14:50:53.759Z,9.18
2023-11-14T14:53:23.843Z,11.27
2023-11-14T14:55:51.472Z,7.87
2023-11-14T14:58:20.424Z,8.13
2023-11-14T15:00:47.712Z,11.38
2023-11-14T15:03:22.384Z,13.95
2023-11-14T15:05:51.550Z,11.52
2023-11-14T15:08:19.656Z,14.47
2023-11-14T15:10:47.596Z,9.15
2023-11-14T15:13:14.853Z,11.68
2023-11-14T15:15:41.986Z,12.25
2023-11-14T15:18:09.007Z,11.13
2023-11-14T15:20:36.228Z,8.67
2023-11-14T15:23:04.984Z,13.20
2023-11-14T15:25:34.861Z,8.57
2023-11-14T15:28:02.034Z,9.02
2023-11-14T15:30:29.125Z,10.50
2023-11-14T15:32:57.907Z,10.13
2023-11-14T15:35:26.634Z,8.15
2023-11-14T15:37:54.284Z,10.18
2023-11-14T15:40:21.498Z,9.05
2023-11-14T15:42:48.432Z,9.00
2023-11-14T15:45:15.588Z,10.00
2023-11-14T15:47:42.564Z,9.60
2023-11-14T15:50:11.734Z,9.50
2023-11-14T15:52:38.774Z,11.55
2023-11-14T15:55:06.623Z,9.15
2023-11-14T15:57:34.071Z,8.03
2023-11-14T16:00:05.473Z,8.10
2023-11-14T16:02:32.848Z,15.55
2023-11-14T16:04:59.921Z,4.03
2023-11-14T16:07:26.977Z,9.50
2023-11-14T16:09:56.371Z,12.13
2023-11-14T16:12:23.961Z,10.70
2023-11-14T16:14:50.911Z,9.80
2023-11-14T16:17:17.932Z,9.27
2023-11-14T16:19:45.052Z,13.85
2023-11-14T16:22:12.874Z,8.30
2023-11-14T16:24:40.127Z,8.93
2023-11-14T16:27:07.815Z,7.72
2023-11-14T16:29:34.884Z,7.18
2023-11-14T16:32:07.803Z,8.82
2023-11-14T16:34:34.899Z,10.43
2023-11-14T16:37:01.773Z,9.23
2023-11-14T16:39:28.825Z,10.57
2023-11-14T16:41:55.796Z,8.18
2023-11-14T16:44:22.971Z,8.05
2023-11-14T16:46:51.386Z,8.17
2023-11-14T16:49:18.393Z,9.43
2023-11-14T16:51:45.420Z,6.65
2023-11-14T16:54:12.417Z,7.10
2023-11-14T16:56:39.395Z,8.60
2023-11-14T16:59:06.459Z,8.90
2023-11-14T17:01:33.554Z,8.80
2023-11-14T17:04:11.370Z,11.10
2023-11-14T17:09:51.512Z,10.10
2023-11-14T17:12:18.867Z,8.80
2023-11-14T17:14:45.981Z,7.53
2023-11-14T17:17:13.152Z,12.25
2023-11-14T17:19:40.519Z,7.13
2023-11-14T17:22:07.640Z,11.70
2023-11-14T17:24:34.821Z,11.73
2023-11-14T17:27:02.873Z,10.65
2023-11-14T17:29:29.945Z,7.82
2023-11-14T17:32:00.621Z,8.15
2023-11-14T17:34:27.976Z,12.98
2023-11-14T17:36:55.013Z,7.57
2023-11-14T17:39:22.177Z,8.07
2023-11-14T17:41:49.439Z,10.02
2023-11-14T17:44:21.929Z,9.32
2023-11-14T17:46:49.810Z,7.05
2023-11-14T17:49:17.335Z,7.00
2023-11-14T17:51:45.013Z,9.13
2023-11-14T17:54:12.260Z,8.02
2023-11-14T17:56:39.595Z,9.57
2023-11-14T17:59:07.298Z,8.32
2023-11-14T18:01:34.513Z,13.43
2023-11-14T18:04:01.656Z,10.70
2023-11-14T18:06:29.747Z,7.55
2023-11-14T18:08:57.193Z,6.88
2023-11-14T18:11:26.957Z,7.93
2023-11-14T18:13:55.548Z,9.10
2023-11-14T18:16:23.368Z,8.85
2023-11-14T18:18:50.711Z,8.00
2023-11-14T18:21:19.872Z,7.10
2023-11-14T18:23:46.904Z,6.95
2023-11-14T18:26:13.969Z,7.20
2023-11-14T18:28:42.599Z,7.03
2023-11-14T18:31:09.601Z,7.95
2023-11-14T18:33:36.681Z,7.18
2023-11-14T18:36:05.989Z,6.40
2023-11-14T18:38:33.097Z,9.10
2023-11-14T18:41:00.440Z,5.50
2023-11-14T18:43:29.866Z,6.13
2023-11-14T18:45:57.665Z,8.00
2023-11-14T18:48:24.700Z,9.68
2023-11-14T18:50:52.253Z,5.80
2023-11-14T18:53:19.936Z,7.30
2023-11-14T18:55:47.827Z,7.38
2023-11-14T18:58:17.422Z,5.97
2023-11-14T19:00:44.436Z,8.93
2023-11-14T19:03:11.620Z,7.33
2023-11-14T19:05:38.849Z,6.47
2023-11-14T19:08:05.832Z,8.98
2023-11-14T19:10:32.935Z,5.82
2023-11-14T19:12:59.908Z,7.13
2023-11-14T19:15:27.195Z,4.87
2023-11-14T19:17:54.219Z,6.53
2023-11-14T19:20:22.024Z,10.68
2023-11-14T19:23:36.955Z,10.25
2023-11-14T19:25:38.086Z,9.25
2023-11-14T19:28:05.106Z,8.03
2023-11-14T19:30:32.181Z,7.30
2023-11-14T19:32:59.285Z,5.40
2023-11-14T19:35:26.435Z,5.50
2023-11-14T19:37:53.891Z,5.75
2023-11-14T19:40:21.530Z,6.27
2023-11-14T19:42:48.470Z,9.43
2023-11-14T19:45:15.845Z,5.63
2023-11-14T19:47:42.832Z,6.93
2023-11-14T19:50:10.249Z,6.90
2023-11-14T19:52:37.300Z,9.17
2023-11-14T19:55:04.836Z,4.80
2023-11-14T19:57:32.022Z,7.50
2023-11-14T20:00:09.254Z,5.78
2023-11-14T20:02:45.338Z,6.78
2023-11-14T20:05:16.520Z,9.93
2023-11-14T20:07:43.686Z,7.95
2023-11-14T20:10:11.000Z,6.32
2023-11-14T20:12:38.608Z,6.45
2023-11-14T20:15:06.110Z,7.63
2023-11-14T20:17:33.325Z,8.13
2023-11-14T20:20:00.536Z,6.10
2023-11-14T20:22:27.823Z,5.88
2023-11-14T20:24:54.849Z,3.88
2023-11-14T20:27:22.003Z,7.65
2023-11-14T20:29:50.203Z,5.20
2023-11-14T20:32:17.365Z,6.47
2023-11-14T20:34:44.473Z,7.00
2023-11-14T20:37:11.518Z,6.75
2023-11-14T20:39:38.996Z,6.38
2023-11-14T20:42:06.637Z,4.53
2023-11-14T20:44:33.702Z,6.70
2023-11-14T20:47:00.803Z,5.03
2023-11-14T20:49:27.852Z,7.75
2023-11-14T20:51:55.296Z,4.80
2023-11-14T20:54:22.281Z,6.97
2023-11-14T20:56:49.801Z,7.32
2023-11-14T20:59:16.992Z,5.93
2023-11-14T21:01:44.371Z,5.22
2023-11-14T21:04:11.696Z,5.97
2023-11-14T21:06:40.384Z,5.67
2023-11-14T21:09:07.812Z,7.07
2023-11-14T21:11:34.938Z,6.57
2023-11-14T21:14:02.115Z,6.90
2023-11-14T21:16:29.190Z,5.47
2023-11-14T21:18:56.443Z,5.93
2023-11-14T21:21:23.611Z,4.03
2023-11-14T21:23:50.717Z,4.93
2023-11-14T21:26:22.173Z,4.60
2023-11-14T21:28:50.274Z,5.95
2023-11-14T21:31:19.733Z,6.30
2023-11-14T21:33:49.489Z,7.03
2023-11-14T21:36:16.730Z,6.68
2023-11-14T21:38:43.908Z,5.47
2023-11-14T21:41:11.488Z,5.88
2023-11-14T21:43:40.426Z,7.17
2023-11-14T21:46:07.577Z,5.70
2023-11-14T21:48:35.239Z,3.88
2023-11-14T21:51:03.067Z,7.38
2023-11-14T21:53:33.226Z,9.20
2023-11-14T21:56:00.849Z,5.20
2023-11-14T21:58:28.298Z,3.97
2023-11-14T22:00:55.431Z,6.18
2023-11-14T22:03:22.841Z,4.47
2023-11-14T22:05:52.219Z,6.45
2023-11-14T22:08:23.598Z,7.73
2023-11-14T22:10:51.601Z,5.15
2023-11-14T22:13:18.865Z,5.28
2023-11-14T22:15:47.862Z,4.75
2023-11-14T22:18:16.363Z,7.05
2023-11-14T22:24:45.036Z,6.75
2023-11-14T22:27:12.236Z,5.15
2023-11-14T22:29:39.267Z,9.02
2023-11-14T22:32:06.874Z,6.22
2023-11-14T22:34:34.032Z,7.13
2023-11-14T22:37:01.628Z,5.18
2023-11-14T22:39:28.731Z,7.95
2023-11-14T22:41:57.380Z,5.70
2023-11-14T22:44:24.471Z,5.13
2023-11-14T22:46:53.143Z,10.00
2023-11-14T22:49:20.264Z,4.53
2023-11-14T22:51:47.538Z,7.45
2023-11-14T22:54:14.791Z,7.03
2023-11-14T22:56:44.118Z,7.25
2023-11-14T22:59:11.313Z,5.10
2023-11-14T23:01:38.680Z,6.20
2023-11-14T23:04:09.481Z,6.30
2023-11-14T23:06:40.814Z,5.65
2023-11-14T23:09:15.999Z,3.60
2023-11-14T23:11:52.204Z,4.70
2023-11-14T23:14:21.093Z,5.60
2023-11-14T23:16:50.246Z,3.85
2023-11-14T23:19:17.911Z,5.07
2023-11-14T23:21:52.244Z,5.43
2023-11-14T23:24:22.669Z,6.20
2023-11-14T23:26:49.955Z,5.15
2023-11-14T23:29:17.168Z,5.45
2023-11-14T23:31:44.603Z,3.58
2023-11-14T23:34:11.719Z,5.25
2023-11-14T23:36:38.797Z,4.03
2023-11-14T23:39:06.241Z,5.45
2023-11-14T23:41:35.091Z,6.65
2023-11-14T23:44:02.948Z,3.75
2023-11-14T23:46:30.835Z,5.82
2023-11-14T23:49:00.861Z,7.37
2023-11-14T23:51:28.213Z,4.28
2023-11-14T23:53:55.340Z,3.42
2023-11-14T23:56:22.502Z,3.65
2023-11-14T23:58:49.660Z,3.75
